Time;durP1;ratioP1;P1;durP2;ratioP2;P2;SDS_P1;SDS_P2;PMS_P1;PMS_P2;Temp;Humidity;BMP_temperature;BMP_pressure;BME280_temperature;BME280_humidity;BME280_pressure;Samples;Min_cycle;Max_cycle;Signal;HPM_P1;HPM_P2
2024/03/05 00:00:17;;;;;;;;;;;7.00;99.90;;;;;;2602362;54;20743;31
2024/03/05 00:02:54;;;;;;;63.60;30.15;;;7.00;99.90;;;;;;2620850;47;19934;31
2024/03/05 00:05:32;;;;;;;58.25;29.80;;;7.00;99.90;;;;;;2620850;47;21613;31
2024/03/05 00:08:10;;;;;;;62.25;29.45;;;7.00;99.90;;;;;;2602357;54;20114;31
2024/03/05 00:10:46;;;;;;;61.85;30.33;;;6.90;99.90;;;;;;2620722;47;20036;31
2024/03/05 00:13:21;;;;;;;;;;;6.90;99.90;;;;;;2602360;54;20038;31
2024/03/05 00:15:57;;;;;;;57.45;27.35;;;6.90;99.90;;;;;;2602102;54;20021;31
2024/03/05 00:18:32;;;;;;;54.55;26.00;;;7.00;99.90;;;;;;2602157;54;20919;31
2024/03/05 00:21:22;;;;;;;64.03;30.05;;;6.90;99.90;;;;;;2620970;47;20050;31
2024/03/05 00:24:18;;;;;;;65.75;30.60;;;6.90;99.90;;;;;;2602127;54;20770;31
2024/03/05 00:27:08;;;;;;;62.75;30.45;;;6.80;99.90;;;;;;2602220;54;20057;31
2024/03/05 00:29:45;;;;;;;67.05;31.40;;;6.80;99.90;;;;;;2621295;46;20034;31
2024/03/05 00:32:19;;;;;;;64.30;28.70;;;6.80;99.90;;;;;;2602816;54;20031;31
2024/03/05 00:34:57;;;;;;;62.35;30.08;;;6.70;99.90;;;;;;2621406;46;20913;31
2024/03/05 00:37:35;;;;;;;57.35;28.75;;;6.70;99.90;;;;;;2602900;54;20041;31
2024/03/05 00:40:14;;;;;;;57.47;28.60;;;6.70;99.90;;;;;;2602947;54;20033;31
2024/03/05 00:42:49;;;;;;;56.15;28.23;;;6.70;99.90;;;;;;2603088;54;20865;31
2024/03/05 00:45:25;;;;;;;60.95;29.83;;;6.70;99.90;;;;;;2602846;54;20085;31
2024/03/05 00:48:01;;;;;;;61.50;29.30;;;6.70;99.90;;;;;;2701758;39;21350;31
2024/03/05 00:50:36;;;;;;;57.22;28.05;;;6.70;99.90;;;;;;2602873;54;20026;31
2024/03/05 00:53:14;;;;;;;56.50;28.10;;;6.70;99.90;;;;;;2621439;46;20027;31
2024/03/05 00:55:50;;;;;;;66.60;28.98;;;6.70;99.90;;;;;;2602669;54;20037;31
2024/03/05 00:58:27;;;;;;;65.95;28.70;;;6.60;99.90;;;;;;2602826;54;20031;31
2024/03/05 01:01:07;;;;;;;61.10;29.80;;;6.60;99.90;;;;;;2621067;46;20038;31
2024/03/05 01:03:46;;;;;;;66.68;31.23;;;6.50;99.90;;;;;;2602926;54;20902;31
2024/03/05 01:06:22;;;;;;;67.38;30.27;;;6.60;99.90;;;;;;2602720;54;20105;31
2024/03/05 01:09:00;;;;;;;61.08;30.40;;;6.50;99.90;;;;;;2621497;46;20077;31
2024/03/05 01:11:35;;;;;;;62.58;28.58;;;6.50;99.90;;;;;;2621499;46;20061;31
2024/03/05 01:14:11;;;;;;;;;;;6.50;99.90;;;;;;2603184;54;20030;31
2024/03/05 01:16:48;;;;;;;62.95;27.55;;;6.40;99.90;;;;;;2621154;46;20796;31
2024/03/05 01:19:23;;;;;;;58.53;28.43;;;6.40;99.90;;;;;;2603056;54;20865;31
2024/03/05 01:21:59;;;;;;;61.80;29.65;;;6.40;99.90;;;;;;2602870;54;20921;31
2024/03/05 01:24:37;;;;;;;58.70;27.63;;;6.50;99.90;;;;;;2620982;46;20032;31
2024/03/05 01:27:12;;;;;;;61.80;28.85;;;6.50;99.90;;;;;;2602846;54;20762;31
2024/03/05 01:29:47;;;;;;;58.95;29.60;;;6.40;99.90;;;;;;2602783;54;20038;31
2024/03/05 01:32:28;;;;;;;61.42;28.30;;;6.40;99.90;;;;;;2602743;54;20741;31
2024/03/05 01:35:07;;;;;;;52.70;27.90;;;6.50;99.90;;;;;;2621394;46;20875;31
2024/03/05 01:37:47;;;;;;;58.65;28.75;;;6.40;99.90;;;;;;2621326;46;20797;31
2024/03/05 01:40:27;;;;;;;50.72;27.05;;;6.40;99.90;;;;;;2602664;54;20033;31
2024/03/05 01:43:02;;;;;;;62.47;27.75;;;6.50;99.90;;;;;;2621257;46;20034;31
2024/03/05 01:45:36;;;;;;;56.33;28.00;;;6.50;99.90;;;;;;2620852;46;20089;31
2024/03/05 01:48:12;;;;;;;60.58;28.48;;;6.50;99.90;;;;;;2621265;46;20026;31
2024/03/05 01:50:47;;;;;;;57.47;27.33;;;6.50;99.90;;;;;;2602754;54;20029;31
2024/03/05 01:53:22;;;;;;;59.65;28.15;;;6.50;99.90;;;;;;2602398;54;20030;31
2024/03/05 01:56:00;;;;;;;57.53;28.10;;;6.50;99.90;;;;;;2621319;46;20026;31
2024/03/05 01:58:35;;;;;;;56.08;27.25;;;6.50;99.90;;;;;;2602828;54;20026;31
2024/03/05 02:01:11;;;;;;;50.50;26.30;;;6.50;99.90;;;;;;2602538;54;20248;31
2024/03/05 02:03:45;;;;;;;56.50;28.25;;;6.50;99.90;;;;;;2602604;54;20033;31
2024/03/05 02:06:20;;;;;;;60.67;28.53;;;6.50;99.90;;;;;;2602793;54;20027;31
2024/03/05 02:08:55;;;;;;;54.97;27.45;;;6.50;99.90;;;;;;2602872;54;20034;31
2024/03/05 02:11:34;;;;;;;71.93;29.00;;;6.50;99.90;;;;;;2602686;54;20882;31
2024/03/05 02:14:20;;;;;;;62.65;28.80;;;6.50;99.90;;;;;;2602749;54;21238;31
2024/03/05 02:16:56;;;;;;;;;;;6.40;99.90;;;;;;2621290;46;21151;31
2024/03/05 02:19:34;;;;;;;66.78;26.33;;;6.40;99.90;;;;;;2602612;54;19935;31
2024/03/05 02:22:11;;;;;;;61.33;27.58;;;6.40;99.90;;;;;;2602430;54;20030;31
2024/03/05 02:24:47;;;;;;;67.73;27.87;;;6.30;99.90;;;;;;2602829;54;20769;31
2024/03/05 02:27:23;;;;;;;66.60;29.10;;;6.30;99.90;;;;;;2602763;54;20882;31
2024/03/05 02:30:12;;;;;;;62.53;26.90;;;6.30;99.90;;;;;;2602647;54;21090;31
2024/03/05 02:32:48;;;;;;;58.30;27.30;;;6.30;99.90;;;;;;2602548;54;20026;31
2024/03/05 02:35:21;;;;;;;55.67;27.30;;;6.30;99.90;;;;;;2602577;54;21899;31
2024/03/05 02:38:05;;;;;;;60.45;27.67;;;6.30;99.90;;;;;;2621127;46;20026;31
2024/03/05 02:40:40;;;;;;;58.57;27.57;;;6.20;99.90;;;;;;2602277;54;20030;31
2024/03/05 02:43:16;;;;;;;63.80;27.85;;;6.20;99.90;;;;;;2620893;46;20038;31
2024/03/05 02:45:51;;;;;;;61.50;28.07;;;6.20;99.90;;;;;;2602494;54;20185;31
2024/03/05 02:48:26;;;;;;;60.07;27.33;;;6.10;99.90;;;;;;2621047;46;20245;31
2024/03/05 02:51:02;;;;;;;64.90;30.17;;;6.10;99.90;;;;;;2602474;54;20078;31
2024/03/05 02:53:41;;;;;;;60.90;27.38;;;6.10;99.90;;;;;;2620608;46;20971;31
2024/03/05 02:56:14;;;;;;;60.78;27.08;;;6.10;99.90;;;;;;2602622;54;21933;31
2024/03/05 02:58:49;;;;;;;60.00;27.60;;;6.00;99.90;;;;;;2602226;54;20081;31
2024/03/05 03:01:37;;;;;;;56.35;27.05;;;6.00;99.90;;;;;;2602511;54;20031;31
2024/03/05 03:04:19;;;;;;;62.47;28.40;;;6.00;99.90;;;;;;2602630;54;20868;31
2024/03/05 03:12:43;;;;;;;68.40;28.35;;;6.10;99.90;;;;;;2601938;54;20808;31
2024/03/05 03:18:20;;;;;;;58.40;26.30;;;6.10;99.90;;;;;;2602453;54;20801;31
2024/03/05 03:23:54;;;;;;;46.28;23.95;;;6.10;99.90;;;;;;2602512;54;20030;31
2024/03/05 03:26:30;;;;;;;51.38;25.20;;;6.00;99.90;;;;;;2602421;54;20030;31
2024/03/05 03:29:11;;;;;;;51.70;25.13;;;6.00;99.90;;;;;;2602472;54;20120;31
2024/03/05 03:31:47;;;;;;;45.53;24.63;;;6.00;99.90;;;;;;2602373;54;20086;31
2024/03/05 03:37:33;;;;;;;42.67;22.33;;;6.00;99.90;;;;;;2602215;54;20876;31
2024/03/05 03:42:56;;;;;;;44.07;24.03;;;6.00;99.90;;;;;;2602358;54;20030;31
2024/03/05 03:45:36;;;;;;;46.90;24.17;;;6.00;99.90;;;;;;2602396;54;20298;31
2024/03/05 03:48:12;;;;;;;44.75;22.20;;;6.00;99.90;;;;;;2602531;54;20829;31
2024/03/05 03:50:46;;;;;;;42.67;22.77;;;6.00;99.90;;;;;;2620199;47;20066;31
2024/03/05 03:53:22;;;;;;;46.47;22.55;;;6.00;99.90;;;;;;2602181;54;20050;31
2024/03/05 03:55:53;;;;;;;44.40;22.05;;;6.00;99.90;;;;;;2632062;54;20006;-94
2024/03/05 03:58:24;;;;;;;47.88;21.60;;;6.00;99.90;;;;;;2632051;54;20087;-94
2024/03/05 04:01:02;;;;;;;40.17;21.45;;;5.90;99.90;;;;;;2608385;47;20026;31
2024/03/05 04:03:36;;;;;;;37.80;20.65;;;6.00;99.90;;;;;;2620808;47;20115;31
2024/03/05 04:06:11;;;;;;;45.70;21.75;;;6.00;99.90;;;;;;2603317;54;20914;31
2024/03/05 04:08:46;;;;;;;39.40;21.67;;;5.90;99.90;;;;;;2603096;54;20026;31
2024/03/05 04:11:21;;;;;;;49.38;23.10;;;5.90;99.90;;;;;;2621451;46;21616;31
2024/03/05 04:14:01;;;;;;;52.00;22.80;;;5.90;99.90;;;;;;2603106;54;20022;31
2024/03/05 04:16:42;;;;;;;47.50;22.77;;;5.90;99.90;;;;;;2632819;54;20003;-93
2024/03/05 04:19:16;;;;;;;42.20;21.70;;;5.90;99.90;;;;;;2603001;54;20446;31
2024/03/05 04:21:50;;;;;;;39.57;21.40;;;5.90;99.90;;;;;;2603053;54;21001;31
2024/03/05 04:24:25;;;;;;;43.88;23.08;;;5.90;99.90;;;;;;2603089;54;20030;31
2024/03/05 04:27:03;;;;;;;42.75;21.30;;;5.80;99.90;;;;;;2603034;54;20027;31
2024/03/05 04:29:41;;;;;;;51.03;24.00;;;5.90;99.90;;;;;;2603059;54;20084;31
2024/03/05 04:32:19;;;;;;;47.78;22.55;;;5.90;99.90;;;;;;2603143;54;20034;31
2024/03/05 04:35:00;;;;;;;49.87;23.60;;;5.80;99.90;;;;;;2603053;54;20026;31
2024/03/05 04:37:35;;;;;;;47.23;23.20;;;5.80;99.90;;;;;;2603239;54;20052;31
2024/03/05 04:40:13;;;;;;;47.00;21.50;;;5.80;99.90;;;;;;2772867;31;20607;31
2024/03/05 04:42:49;;;;;;;46.15;22.92;;;5.80;99.90;;;;;;2621331;46;20921;31
2024/03/05 04:45:26;;;;;;;50.47;24.30;;;5.80;99.90;;;;;;2621835;46;20031;31
2024/03/05 04:47:58;;;;;;;45.57;22.53;;;5.70;99.90;;;;;;2603269;54;20038;31
2024/03/05 04:50:37;;;;;;;53.15;23.75;;;5.80;99.90;;;;;;2603016;54;21530;31
2024/03/05 04:53:12;;;;;;;48.20;23.60;;;5.70;99.90;;;;;;2603196;54;20948;31
2024/03/05 04:55:47;;;;;;;48.13;21.77;;;5.70;99.90;;;;;;2621525;46;20034;31
2024/03/05 04:58:22;;;;;;;50.45;22.10;;;5.70;99.90;;;;;;2603097;54;20889;31
2024/03/05 05:00:57;;;;;;;53.23;23.03;;;5.80;99.90;;;;;;2602999;54;20860;31
2024/03/05 05:03:32;;;;;;;56.38;23.70;;;5.80;99.90;;;;;;2621224;46;21011;31
2024/03/05 05:06:10;;;;;;;52.35;24.00;;;5.80;99.90;;;;;;2621343;46;20037;31
2024/03/05 05:08:45;;;;;;;57.92;24.00;;;5.70;99.90;;;;;;2603031;54;20034;31
2024/03/05 05:11:20;;;;;;;57.55;24.25;;;5.70;99.90;;;;;;2602948;54;20852;31
2024/03/05 05:13:55;;;;;;;54.15;23.83;;;5.70;99.90;;;;;;2621532;46;20037;31
2024/03/05 05:16:30;;;;;;;57.17;25.73;;;5.70;99.90;;;;;;2602843;54;20042;31
2024/03/05 05:19:06;;;;;;;55.03;24.73;;;5.70;99.90;;;;;;2764352;31;20026;31
2024/03/05 05:21:43;;;;;;;56.72;25.98;;;5.70;99.90;;;;;;2602809;54;20031;31
2024/03/05 05:24:18;;;;;;;57.92;27.13;;;5.70;99.90;;;;;;2602718;54;20061;31
2024/03/05 05:26:53;;;;;;;56.25;26.67;;;5.70;99.90;;;;;;2602993;54;20037;31
2024/03/05 05:29:28;;;;;;;49.43;24.27;;;5.70;99.90;;;;;;2602982;54;20902;31
2024/03/05 05:32:15;;;;;;;52.20;22.90;;;5.60;99.90;;;;;;2603088;54;20271;31
2024/03/05 05:34:50;;;;;;;47.97;22.70;;;5.60;99.90;;;;;;2791233;31;21528;31
2024/03/05 05:37:28;;;;;;;43.80;21.20;;;5.60;99.90;;;;;;2602798;54;20894;31
2024/03/05 05:40:03;;;;;;;46.80;21.70;;;5.60;99.90;;;;;;2602910;54;20065;31
2024/03/05 05:42:38;;;;;;;42.15;21.05;;;5.60;99.90;;;;;;2602900;54;20022;31
2024/03/05 05:45:13;;;;;;;32.50;18.00;;;5.50;99.90;;;;;;2621376;46;20868;31
2024/03/05 05:47:53;;;;;;;40.40;19.48;;;5.50;99.90;;;;;;2621572;46;20058;31
2024/03/05 05:50:31;;;;;;;35.33;19.23;;;5.40;99.90;;;;;;2602861;54;20073;31
2024/03/05 05:53:09;;;;;;;33.80;17.75;;;5.40;99.90;;;;;;2620713;46;20995;31
2024/03/05 05:55:45;;;;;;;33.30;18.48;;;5.40;99.90;;;;;;2602909;54;20121;31
2024/03/05 05:58:26;;;;;;;38.55;19.45;;;5.40;99.90;;;;;;2602902;54;20034;31
2024/03/05 06:01:05;;;;;;;34.90;18.08;;;5.40;99.90;;;;;;2603010;54;21531;31
2024/03/05 06:06:23;;;;;;;33.90;17.55;;;5.30;99.90;;;;;;2603618;54;20005;31
2024/03/05 06:09:34;;;;;;;32.95;17.50;;;5.30;99.90;;;;;;2602381;54;20125;31
2024/03/05 06:15:46;;;;;;;42.42;21.65;;;5.30;99.90;;;;;;2602982;54;20946;31
2024/03/05 06:28:08;;;;;;;38.25;19.45;;;5.40;99.90;;;;;;2602103;54;20038;31
2024/03/05 07:46:04;;;;;;;30.20;17.05;;;5.80;99.90;;;;;;2602986;54;20789;31
2024/03/05 07:55:31;;;;;;;29.45;15.45;;;6.00;99.90;;;;;;2603203;54;20882;31
2024/03/05 08:01:57;;;;;;;24.37;14.10;;;6.00;99.90;;;;;;2603128;54;20026;31
2024/03/05 08:07:51;;;;;;;22.83;13.03;;;6.10;99.90;;;;;;2605698;46;20108;31
2024/03/05 08:10:44;;;;;;;26.35;14.05;;;6.10;99.90;;;;;;2701750;39;21609;31
2024/03/05 08:16:38;;;;;;;58.05;25.60;;;6.50;99.90;;;;;;2603127;54;20054;31
2024/03/05 08:19:45;;;;;;;39.30;18.50;;;6.50;99.90;;;;;;2603096;54;20061;31
2024/03/05 08:25:39;;;;;;;22.80;12.07;;;6.60;99.90;;;;;;2603154;54;20027;31
2024/03/05 08:28:30;;;;;;;28.55;13.00;;;6.60;99.90;;;;;;2612984;46;20038;31
2024/03/05 08:31:19;;;;;;;25.03;12.67;;;6.70;99.90;;;;;;2607712;46;20026;31
2024/03/05 08:34:00;;;;;;;21.10;11.55;;;6.80;99.90;;;;;;2621586;46;20849;31
2024/03/05 08:39:42;;;;;;;17.00;10.43;;;7.00;99.90;;;;;;2602409;54;20029;31
2024/03/05 08:42:21;;;;;;;19.10;10.85;;;7.10;99.90;;;;;;2603176;54;20026;31
2024/03/05 08:51:30;;;;;;;18.42;10.90;;;7.40;99.90;;;;;;2602852;54;20879;31
2024/03/05 08:54:31;;;;;;;19.80;11.27;;;7.50;99.90;;;;;;2603155;54;20031;31
2024/03/05 09:00:48;;;;;;;17.80;10.20;;;7.70;99.90;;;;;;2602939;54;20764;31
2024/03/05 09:09:16;;;;;;;24.02;13.15;;;8.00;99.90;;;;;;2621418;46;20030;31
2024/03/05 09:12:16;;;;;;;19.30;11.77;;;8.10;99.90;;;;;;2602748;54;20077;31
2024/03/05 09:18:20;;;;;;;22.55;12.20;;;8.20;99.90;;;;;;2602091;54;20034;31
2024/03/05 09:21:32;;;;;;;19.45;11.80;;;8.10;99.90;;;;;;2621392;46;20761;31
2024/03/05 09:27:19;;;;;;;21.20;11.05;;;8.20;99.90;;;;;;2602789;54;20038;31
2024/03/05 09:33:38;;;;;;;17.25;9.90;;;8.50;99.90;;;;;;2602819;54;20741;31
2024/03/05 09:36:23;;;;;;;20.13;11.23;;;8.70;99.90;;;;;;2601910;54;20916;31
2024/03/05 09:39:30;;;;;;;19.60;11.55;;;8.90;99.90;;;;;;2602835;54;20052;31
2024/03/05 10:15:56;;;;;;;21.83;12.80;;;9.00;99.90;;;;;;2603605;46;20292;31
2024/03/05 10:18:51;;;;;;;23.92;14.27;;;8.90;99.90;;;;;;2621294;46;20833;31
2024/03/05 10:30:18;;;;;;;24.08;14.95;;;8.60;99.90;;;;;;2602515;54;20034;31
2024/03/05 10:36:53;;;;;;;26.23;14.95;;;8.50;99.90;;;;;;2602809;54;20026;31
2024/03/05 10:43:28;;;;;;;21.85;14.00;;;8.50;99.90;;;;;;2602615;54;20857;31
2024/03/05 10:46:23;;;;;;;26.73;13.70;;;8.50;99.90;;;;;;2602487;54;21182;31
2024/03/05 11:05:07;;;;;;;20.85;12.23;;;8.40;99.90;;;;;;2601482;54;20026;31
2024/03/05 11:08:13;;;;;;;21.17;12.65;;;8.30;99.90;;;;;;2620994;46;20175;31
2024/03/05 11:55:17;;;;;;;26.40;14.75;;;7.70;99.90;;;;;;2602465;54;20774;31
2024/03/05 11:58:37;;;;;;;28.93;17.03;;;7.60;99.90;;;;;;2620723;47;20073;31
2024/03/05 12:04:55;;;;;;;25.95;14.48;;;7.60;99.90;;;;;;2601493;54;20037;31
2024/03/05 12:08:01;;;;;;;22.25;13.68;;;7.60;99.90;;;;;;2601278;54;20023;31
2024/03/05 12:10:57;;;;;;;23.15;13.35;;;7.60;99.90;;;;;;2602045;54;20853;31
2024/03/05 13:14:42;;;;;;;26.33;13.70;;;7.30;99.90;;;;;;2600411;54;20086;31
2024/03/05 13:17:34;;;;;;;22.15;14.20;;;7.30;99.90;;;;;;2620954;46;20239;31
2024/03/05 14:16:35;;;;;;;23.75;14.85;;;7.60;99.90;;;;;;2602155;54;20861;31
2024/03/05 14:32:04;;;;;;;23.45;13.23;;;7.70;99.90;;;;;;2600227;54;20853;31
2024/03/05 14:34:42;;;;;;;32.28;16.17;;;7.80;99.90;;;;;;2620688;46;20972;31
2024/03/05 14:37:19;;;;;;;24.25;14.23;;;7.80;99.90;;;;;;2602675;54;20032;31
2024/03/05 14:39:56;;;;;;;31.65;13.65;;;7.80;99.90;;;;;;2621301;46;20026;31
2024/03/05 14:42:47;;;;;;;23.42;14.07;;;7.80;99.90;;;;;;2621287;46;20030;31
2024/03/05 14:45:53;;;;;;;27.80;15.70;;;7.80;99.90;;;;;;2600444;54;20099;31
2024/03/05 14:49:07;;;;;;;44.70;27.98;;;7.80;99.90;;;;;;2632361;54;20029;-94
2024/03/05 14:52:07;;;;;;;27.00;16.40;;;7.80;99.90;;;;;;2604503;46;20026;31
2024/03/05 14:55:12;;;;;;;32.10;19.05;;;7.80;99.90;;;;;;2620014;46;20022;31
2024/03/05 14:57:58;;;;;;;19.55;12.93;;;7.80;99.90;;;;;;2602640;54;20861;31
2024/03/05 15:00:36;;;;;;;19.43;12.33;;;7.80;99.90;;;;;;2602408;54;20030;31
2024/03/05 15:06:09;;;;;;;22.42;13.40;;;7.70;99.90;;;;;;2602429;54;20023;31
2024/03/05 15:08:52;;;;;;;21.98;12.35;;;7.70;99.90;;;;;;2602432;54;20968;31
2024/03/05 15:11:28;;;;;;;22.88;12.63;;;7.70;99.90;;;;;;2618161;46;20097;31
2024/03/05 15:14:09;;;;;;;28.88;13.95;;;7.60;99.90;;;;;;2602468;54;20877;31
2024/03/05 15:16:43;;;;;;;25.40;13.02;;;7.60;99.90;;;;;;2602606;54;20029;31
2024/03/05 15:19:18;;;;;;;37.70;19.98;;;7.60;99.90;;;;;;2621159;46;20869;31
2024/03/05 15:25:10;;;;;;;33.30;19.08;;;7.60;99.90;;;;;;2602167;54;20301;31
2024/03/05 15:27:48;;;;;;;27.85;14.60;;;7.50;99.90;;;;;;2602405;54;20029;31
2024/03/05 15:30:39;;;;;;;24.35;14.20;;;7.50;99.90;;;;;;2602431;54;20050;31
2024/03/05 15:33:24;;;;;;;24.20;13.45;;;7.40;99.90;;;;;;2602580;54;20033;31
2024/03/05 15:36:07;;;;;;;23.73;14.32;;;7.40;99.90;;;;;;2620740;47;20055;31
2024/03/05 15:38:44;;;;;;;25.75;13.15;;;7.40;99.90;;;;;;2602413;54;20049;31
2024/03/05 15:41:20;;;;;;;31.70;18.08;;;7.40;99.90;;;;;;2602368;54;20109;31
2024/03/05 15:43:55;;;;;;;34.22;15.55;;;7.30;99.90;;;;;;2602389;54;20033;31
2024/03/05 15:46:32;;;;;;;27.33;15.33;;;7.40;99.90;;;;;;2602320;54;20172;31
2024/03/05 15:52:46;;;;;;;;;;;;;;;;;;;;;
2024/03/05 16:08:06;;;;;;;28.15;15.80;;;7.30;99.90;;;;;;2603466;46;20057;31
2024/03/05 16:36:45;;;;;;;25.35;14.35;;;7.10;99.90;;;;;;2619315;46;20022;31
2024/03/05 16:42:28;;;;;;;32.03;15.02;;;7.00;99.90;;;;;;2602165;54;20034;31
2024/03/05 16:45:05;;;;;;;29.07;17.97;;;7.00;99.90;;;;;;2701414;39;20480;31
2024/03/05 16:47:42;;;;;;;;;;;7.10;99.90;;;;;;2603283;54;21183;31
2024/03/05 16:50:20;;;;;;;29.23;15.23;;;7.00;99.90;;;;;;2602915;54;19938;31
2024/03/05 16:58:49;;;;;;;32.25;16.05;;;7.00;99.90;;;;;;2622963;46;20107;31
2024/03/05 17:01:27;;;;;;;45.75;20.58;;;7.00;99.90;;;;;;2602762;54;20029;31
2024/03/05 17:04:08;;;;;;;42.33;20.88;;;7.00;99.90;;;;;;2719646;39;20458;31
2024/03/05 17:06:45;;;;;;;37.83;20.52;;;7.00;99.90;;;;;;2602888;54;20022;31
2024/03/05 17:09:23;;;;;;;38.92;20.88;;;7.00;99.90;;;;;;2602735;54;20022;31
2024/03/05 17:12:14;;;;;;;35.88;19.05;;;6.90;99.90;;;;;;2602983;54;20026;31
2024/03/05 17:14:53;;;;;;;36.30;20.65;;;6.90;99.90;;;;;;2619372;46;20153;31
2024/03/05 17:17:32;;;;;;;39.83;20.90;;;6.90;99.90;;;;;;2621190;46;21267;31
2024/03/05 17:20:09;;;;;;;41.17;22.42;;;6.90;99.90;;;;;;2602997;54;20854;31
2024/03/05 17:22:50;;;;;;;41.00;21.53;;;6.90;99.90;;;;;;2602897;54;20037;31
2024/03/05 17:25:37;;;;;;;40.13;21.65;;;6.90;99.90;;;;;;2602676;54;20053;31
2024/03/05 17:28:31;;;;;;;36.83;21.08;;;6.80;99.90;;;;;;2602691;54;20027;31
2024/03/05 17:31:08;;;;;;;42.80;22.45;;;6.80;99.90;;;;;;2602873;54;20027;31
2024/03/05 17:33:46;;;;;;;46.88;24.35;;;6.90;99.90;;;;;;2602804;54;20054;31
2024/03/05 17:36:27;;;;;;;48.13;25.45;;;6.80;99.90;;;;;;2621131;46;20872;31
2024/03/05 17:39:10;;;;;;;44.05;26.17;;;6.80;99.90;;;;;;2621164;46;20914;31
2024/03/05 17:41:53;;;;;;;38.15;22.60;;;6.80;99.90;;;;;;2602909;54;20026;31
2024/03/05 17:44:43;;;;;;;55.08;27.88;;;6.80;99.90;;;;;;2602580;54;20049;31
2024/03/05 17:50:32;;;;;;;47.00;24.67;;;6.70;99.90;;;;;;2705391;39;20439;31
2024/03/05 17:53:10;;;;;;;57.05;25.23;;;6.70;99.90;;;;;;2771860;31;21487;31
2024/03/05 17:55:59;;;;;;;50.50;26.23;;;6.70;99.90;;;;;;2602757;54;20034;31
2024/03/05 17:59:03;;;;;;;44.43;23.60;;;6.70;99.90;;;;;;2606930;46;20273;31
2024/03/05 18:04:21;;;;;;;51.58;24.95;;;6.60;99.90;;;;;;2602765;54;21620;31
2024/03/05 18:07:07;;;;;;;42.90;22.65;;;6.60;99.90;;;;;;2602679;54;20567;31
2024/03/05 18:10:11;;;;;;;38.95;22.90;;;6.60;99.90;;;;;;2602206;54;20049;31
2024/03/05 18:18:26;;;;;;;43.75;21.35;;;6.50;99.90;;;;;;2602713;54;20026;31
2024/03/05 18:21:03;;;;;;;39.28;19.30;;;6.50;99.90;;;;;;2620334;46;20023;31
2024/03/05 18:27:03;;;;;;;39.35;20.02;;;6.50;99.90;;;;;;2620807;46;20022;31
2024/03/05 18:29:38;;;;;;;71.38;32.92;;;6.50;99.90;;;;;;2621210;46;20913;31
2024/03/05 18:35:23;;;;;;;92.95;38.85;;;6.30;99.90;;;;;;2602735;54;20903;31
2024/03/05 18:38:00;;;;;;;77.90;36.35;;;6.30;99.90;;;;;;2790862;31;22441;31
2024/03/05 18:40:56;;;;;;;100.82;43.58;;;6.30;99.90;;;;;;2602540;54;20954;31
2024/03/05 18:43:51;;;;;;;114.43;49.30;;;6.20;99.90;;;;;;2601809;54;20034;31
2024/03/05 18:52:25;;;;;;;106.80;46.75;;;6.10;99.90;;;;;;2618264;46;20800;31
2024/03/05 18:55:05;;;;;;;95.97;43.63;;;6.00;99.90;;;;;;2602699;54;20037;31
2024/03/05 18:57:40;;;;;;;86.78;40.70;;;5.90;99.90;;;;;;2620939;46;20026;31
2024/03/05 19:00:23;;;;;;;70.07;31.67;;;5.90;99.90;;;;;;2602530;54;20953;31
2024/03/05 19:03:04;;;;;;;68.75;32.70;;;5.90;99.90;;;;;;2602520;54;20030;31
2024/03/05 19:05:43;;;;;;;64.60;29.40;;;5.80;99.90;;;;;;2620618;46;20030;31
2024/03/05 19:08:21;;;;;;;66.15;30.85;;;5.80;99.90;;;;;;2602385;54;20081;31
2024/03/05 19:11:05;;;;;;;63.40;29.00;;;5.80;99.90;;;;;;2602544;54;20101;31
2024/03/05 19:13:41;;;;;;;60.38;28.88;;;5.70;99.90;;;;;;2602542;54;20931;31
2024/03/05 19:16:19;;;;;;;50.13;24.85;;;5.70;99.90;;;;;;2602539;54;20034;31
2024/03/05 19:18:57;;;;;;;44.13;21.67;;;5.70;99.90;;;;;;2602908;54;20908;31
2024/03/05 19:21:32;;;;;;;40.25;19.95;;;5.70;99.90;;;;;;2701100;39;21402;31
2024/03/05 19:24:10;;;;;;;40.30;19.38;;;5.70;99.90;;;;;;2602411;54;20887;31
2024/03/05 19:26:47;;;;;;;42.97;23.43;;;5.70;99.90;;;;;;2602470;54;20857;31
2024/03/05 19:29:23;;;;;;;42.45;23.85;;;5.60;99.90;;;;;;2602451;54;20061;31
2024/03/05 19:32:00;;;;;;;47.47;22.95;;;5.60;99.90;;;;;;2602615;54;20131;31
2024/03/05 19:34:40;;;;;;;42.40;22.00;;;5.60;99.90;;;;;;2603467;54;20034;31
2024/03/05 19:37:19;;;;;;;43.72;20.85;;;5.50;99.90;;;;;;2621787;46;20027;31
2024/03/05 19:39:55;;;;;;;37.53;20.73;;;5.50;99.90;;;;;;2603290;54;20038;31
2024/03/05 19:42:31;;;;;;;43.67;24.10;;;5.50;16.90;;;;;;2603310;54;21248;31
2024/03/05 19:45:10;;;;;;;45.10;24.40;;;5.50;19.80;;;;;;2603579;54;20856;31
2024/03/05 19:47:51;;;;;;;51.85;29.10;;;5.40;21.80;;;;;;2603415;54;20880;31
2024/03/05 19:50:28;;;;;;;55.65;27.55;;;5.40;23.90;;;;;;2622050;46;20042;31
2024/03/05 19:53:04;;;;;;;72.25;34.08;;;5.40;25.90;;;;;;2603357;54;20155;31
2024/03/05 19:55:39;;;;;;;;;;;5.40;27.80;;;;;;2603183;54;20033;31
2024/03/05 19:58:17;;;;;;;42.47;22.00;;;5.40;27.40;;;;;;2621808;46;20727;31
2024/03/05 20:00:53;;;;;;;40.45;22.60;;;5.40;27.10;;;;;;2603372;54;20905;31
2024/03/05 20:03:34;;;;;;;38.25;19.02;;;5.40;28.70;;;;;;2603372;54;20035;31
2024/03/05 20:06:10;;;;;;;41.58;22.95;;;5.40;30.00;;;;;;2621526;46;20046;31
2024/03/05 20:08:48;;;;;;;42.63;23.30;;;5.40;31.00;;;;;;2603228;54;20026;31
2024/03/05 20:11:23;;;;;;;42.88;22.98;;;5.40;33.70;;;;;;2603139;54;20033;31
2024/03/05 20:13:59;;;;;;;45.92;23.58;;;5.40;34.20;;;;;;2603149;54;20853;31
2024/03/05 20:16:35;;;;;;;52.90;25.45;;;5.40;36.20;;;;;;2603145;54;20117;31
2024/03/05 20:19:13;;;;;;;;;;;5.30;39.40;;;;;;2603365;54;20778;31
2024/03/05 20:21:50;;;;;;;;;;;5.40;39.30;;;;;;2603363;54;19935;31
2024/03/05 20:24:25;;;;;;;;;;;5.30;42.60;;;;;;2603028;54;19961;31
2024/03/05 20:27:02;;;;;;;49.35;22.45;;;5.30;46.20;;;;;;2603032;54;19938;31
2024/03/05 20:29:38;;;;;;;57.80;25.37;;;5.30;48.00;;;;;;2603181;54;20880;31
2024/03/05 20:32:15;;;;;;;47.47;24.13;;;5.30;48.30;;;;;;2602938;54;21165;31
2024/03/05 20:34:55;;;;;;;45.00;22.17;;;5.30;50.50;;;;;;2603093;54;20037;31
2024/03/05 20:37:34;;;;;;;56.10;28.60;;;5.30;51.60;;;;;;2603273;54;20830;31
2024/03/05 20:40:18;;;;;;;60.13;30.47;;;5.30;50.70;;;;;;2603009;54;20073;31
2024/03/05 20:42:53;;;;;;;46.77;26.97;;;5.30;52.00;;;;;;2602980;54;20082;31
2024/03/05 20:45:28;;;;;;;55.50;26.90;;;5.30;53.20;;;;;;2602675;54;20912;31
2024/03/05 20:48:02;;;;;;;55.30;28.23;;;5.40;52.00;;;;;;2602988;54;20026;31
2024/03/05 20:50:40;;;;;;;53.65;26.85;;;5.40;53.60;;;;;;2621036;46;20118;31
2024/03/05 20:53:15;;;;;;;47.17;25.38;;;5.30;55.20;;;;;;2603116;54;20025;31
2024/03/05 20:55:50;;;;;;;54.70;28.30;;;5.40;54.50;;;;;;2621682;46;20890;31
2024/03/05 20:58:25;;;;;;;49.67;25.57;;;5.40;54.30;;;;;;2603121;54;20896;31
2024/03/05 21:01:01;;;;;;;49.80;27.73;;;5.40;53.90;;;;;;2602995;54;20038;31
2024/03/05 21:03:33;;;;;;;48.70;25.02;;;5.40;56.80;;;;;;2621464;46;21133;31
2024/03/05 21:06:12;;;;;;;50.60;27.75;;;5.30;59.50;;;;;;2603252;54;20802;31
2024/03/05 21:08:50;;;;;;;56.10;27.90;;;5.30;60.20;;;;;;2602851;54;20046;31
2024/03/05 21:11:26;;;;;;;54.20;27.90;;;5.30;63.50;;;;;;2602912;54;20611;31
2024/03/05 21:14:02;;;;;;;57.80;28.08;;;5.30;65.60;;;;;;2603023;54;20092;31
2024/03/05 21:16:37;;;;;;;46.05;24.52;;;5.30;67.90;;;;;;2602981;54;20034;31
2024/03/05 21:19:13;;;;;;;56.60;32.10;;;5.30;67.40;;;;;;2621730;46;20042;31
2024/03/05 21:21:50;;;;;;;48.47;26.50;;;5.30;69.30;;;;;;2603049;54;20862;31
2024/03/05 21:24:26;;;;;;;45.78;25.40;;;5.20;74.00;;;;;;2602967;54;20101;31
2024/03/05 21:27:01;;;;;;;49.85;25.50;;;5.20;79.70;;;;;;2602853;54;20026;31
2024/03/05 21:29:54;;;;;;;49.30;26.02;;;5.20;81.20;;;;;;2602955;54;20888;31
2024/03/05 21:32:30;;;;;;;52.60;26.42;;;5.20;83.60;;;;;;2602778;54;20820;31
2024/03/05 21:35:05;;;;;;;;;;;5.20;82.20;;;;;;2701980;39;21207;31
2024/03/05 21:37:46;;;;;;;51.63;26.23;;;5.20;88.90;;;;;;2602892;54;19935;31
2024/03/05 21:40:20;;;;;;;44.00;23.75;;;5.20;83.70;;;;;;2603004;54;20048;31
2024/03/05 21:42:56;;;;;;;48.50;26.90;;;5.20;82.40;;;;;;2621463;46;20038;31
2024/03/05 21:45:31;;;;;;;43.90;24.57;;;5.10;82.60;;;;;;2621851;46;20884;31
2024/03/05 21:48:09;;;;;;;49.80;27.33;;;5.20;82.60;;;;;;2602871;54;20252;31
2024/03/05 21:50:44;;;;;;;50.70;26.23;;;5.10;84.80;;;;;;2621328;46;20058;31
2024/03/05 21:53:21;;;;;;;45.45;24.25;;;5.10;84.90;;;;;;2603000;54;20026;31
2024/03/05 21:55:58;;;;;;;42.55;22.88;;;5.20;85.70;;;;;;2602706;54;20034;31
2024/03/05 21:58:34;;;;;;;45.00;23.95;;;5.20;85.70;;;;;;2602883;54;20026;31